Time;durP1;ratioP1;P1;durP2;ratioP2;P2;SDS_P1;SDS_P2;PMS_P1;PMS_P2;Temp;Humidity;BMP_temperature;BMP_pressure;BME280_temperature;BME280_humidity;BME280_pressure;Samples;Min_cycle;Max_cycle;Signal;HPM_P1;HPM_P2
2023/04/27 00:00:24;;;;;;;22.77;8.73;;;2.60;99.90;;;;;;4390692;28;655839;-74
2023/04/27 00:03:12;;;;;;;22.03;8.50;;;2.60;99.90;;;;;;4362328;28;655769;-74
2023/04/27 00:05:59;;;;;;;23.23;8.83;;;2.60;99.90;;;;;;4389719;28;654815;-73
2023/04/27 00:08:46;;;;;;;23.10;8.77;;;2.70;99.90;;;;;;4365136;28;655669;-73
2023/04/27 00:11:33;;;;;;;24.98;8.88;;;2.70;99.90;;;;;;4385051;28;655475;-73
2023/04/27 00:14:20;;;;;;;25.30;7.90;;;2.70;99.90;;;;;;4373458;28;655243;-73
2023/04/27 00:17:09;;;;;;;23.17;8.37;;;2.80;99.90;;;;;;4388585;28;656619;-73
2023/04/27 00:19:57;;;;;;;22.53;8.73;;;2.80;99.90;;;;;;4374439;28;655537;-73
2023/04/27 00:22:45;;;;;;;21.57;7.67;;;2.80;99.90;;;;;;4387423;28;656987;-74
2023/04/27 00:25:32;;;;;;;24.33;8.13;;;2.90;99.90;;;;;;4363354;28;656856;-73
2023/04/27 00:28:19;;;;;;;20.90;8.47;;;2.90;99.90;;;;;;4390715;28;656412;-74
2023/04/27 00:31:06;;;;;;;21.98;7.90;;;2.90;99.90;;;;;;4371457;28;655719;-73
2023/04/27 00:33:55;;;;;;;23.37;8.30;;;2.90;99.90;;;;;;4393626;28;657264;-74
2023/04/27 00:36:42;;;;;;;23.93;8.00;;;2.90;99.90;;;;;;4371864;28;656156;-73
2023/04/27 00:39:29;;;;;;;21.52;7.88;;;3.00;99.90;;;;;;4394740;28;655841;-74
2023/04/27 00:42:18;;;;;;;19.07;7.53;;;2.90;99.90;;;;;;4374643;28;655654;-73
2023/04/27 00:45:06;;;;;;;19.43;7.47;;;2.90;99.90;;;;;;4373232;28;655774;-73
2023/04/27 00:47:54;;;;;;;15.83;7.40;;;2.80;99.90;;;;;;4388115;28;657763;-73
2023/04/27 00:50:42;;;;;;;23.30;8.00;;;2.80;99.90;;;;;;4374224;28;655038;-73
2023/04/27 00:53:29;;;;;;;17.93;7.37;;;2.80;99.90;;;;;;4393959;28;655717;-73
2023/04/27 00:56:17;;;;;;;22.47;7.53;;;2.70;99.90;;;;;;4368949;28;656429;-73
2023/04/27 00:59:04;;;;;;;22.33;7.63;;;2.60;99.90;;;;;;4386712;28;655241;-73
2023/04/27 01:01:51;;;;;;;23.13;8.17;;;2.50;99.90;;;;;;4367567;28;655171;-73
2023/04/27 01:04:38;;;;;;;18.80;7.77;;;2.40;99.90;;;;;;4384140;28;656304;-73
2023/04/27 01:07:27;;;;;;;23.93;8.03;;;2.30;99.90;;;;;;4366464;28;656182;-74
2023/04/27 01:10:14;;;;;;;20.13;7.70;;;2.20;99.90;;;;;;4386889;28;655521;-73
2023/04/27 01:13:01;;;;;;;22.63;7.70;;;2.10;99.90;;;;;;4376518;28;655838;-73
2023/04/27 01:15:49;;;;;;;20.30;8.27;;;2.00;99.90;;;;;;4391423;28;657696;-73
2023/04/27 01:18:36;;;;;;;19.83;7.87;;;1.90;99.90;;;;;;4366709;28;655764;-73
2023/04/27 01:21:23;;;;;;;19.40;8.07;;;1.80;99.90;;;;;;4381151;28;656156;-74
2023/04/27 01:24:12;;;;;;;17.67;6.63;;;1.70;99.90;;;;;;4370740;28;655461;-73
2023/04/27 01:27:00;;;;;;;22.00;8.27;;;1.60;99.90;;;;;;4385674;28;655810;-73
2023/04/27 01:29:47;;;;;;;20.27;7.73;;;1.50;99.90;;;;;;4374604;28;655726;-73
2023/04/27 01:32:37;;;;;;;23.40;7.80;;;1.50;99.90;;;;;;4390084;28;655593;-74
2023/04/27 01:35:24;;;;;;;21.60;8.50;;;1.40;99.90;;;;;;4369554;28;655675;-73
2023/04/27 01:38:11;;;;;;;17.17;7.85;;;1.30;99.90;;;;;;4367275;28;655433;-73
2023/04/27 01:41:00;;;;;;;19.33;7.97;;;1.20;99.90;;;;;;4387642;28;656872;-73
2023/04/27 01:43:48;;;;;;;18.27;7.70;;;1.10;99.90;;;;;;4364160;28;656372;-74
2023/04/27 01:46:35;;;;;;;21.83;8.27;;;1.10;99.90;;;;;;4386175;28;655194;-73
2023/04/27 01:49:22;;;;;;;18.30;8.07;;;1.00;99.90;;;;;;4398689;28;656100;-73
2023/04/27 01:52:09;;;;;;;19.17;7.90;;;1.00;99.90;;;;;;4396524;28;655357;-73
2023/04/27 01:54:57;;;;;;;19.70;7.70;;;0.90;99.90;;;;;;4368792;28;655491;-73
2023/04/27 01:57:45;;;;;;;20.53;8.57;;;0.80;99.90;;;;;;4395271;28;655098;-74
2023/04/27 02:00:32;;;;;;;23.23;7.63;;;0.80;99.90;;;;;;4370961;28;655808;-74
2023/04/27 02:03:20;;;;;;;17.93;8.07;;;0.80;99.90;;;;;;4378099;28;655722;-74
2023/04/27 02:06:08;;;;;;;25.80;8.53;;;0.70;99.90;;;;;;4391344;28;655614;-74
2023/04/27 02:08:55;;;;;;;20.60;7.32;;;0.70;99.90;;;;;;4375546;28;656015;-74
2023/04/27 02:11:42;;;;;;;21.03;7.90;;;0.70;99.90;;;;;;4390217;28;656675;-74
2023/04/27 02:14:32;;;;;;;20.73;8.20;;;0.60;99.90;;;;;;4389661;28;655596;-74
2023/04/27 02:17:19;;;;;;;20.60;7.63;;;0.50;99.90;;;;;;4389161;28;655620;-74
2023/04/27 02:20:07;;;;;;;17.37;7.50;;;0.50;99.90;;;;;;4364102;28;655770;-74
2023/04/27 02:22:55;;;;;;;21.93;8.40;;;0.50;99.90;;;;;;4329455;28;655555;-74
2023/04/27 02:25:45;;;;;;;25.43;8.07;;;0.40;99.90;;;;;;4326698;28;655577;-74
2023/04/27 02:28:32;;;;;;;21.70;8.15;;;0.30;99.90;;;;;;4294918;28;655383;-75
2023/04/27 02:31:21;;;;;;;21.10;8.07;;;0.30;99.90;;;;;;4265917;28;655480;-74
2023/04/27 02:34:08;;;;;;;22.00;8.10;;;0.20;99.90;;;;;;4368359;28;656221;-74
2023/04/27 02:36:55;;;;;;;22.17;8.35;;;0.20;99.90;;;;;;4362703;28;655544;-74
2023/04/27 02:39:43;;;;;;;19.00;8.10;;;0.20;99.90;;;;;;4390362;28;656677;-73
2023/04/27 02:42:30;;;;;;;22.07;8.60;;;0.10;99.90;;;;;;4376214;28;656904;-74
2023/04/27 02:45:17;;;;;;;24.60;8.53;;;0.20;99.90;;;;;;4389287;28;654904;-74
2023/04/27 02:48:07;;;;;;;20.80;7.53;;;0.10;99.90;;;;;;4383216;28;656166;-74
2023/04/27 02:50:55;;;;;;;19.57;7.33;;;0.10;99.90;;;;;;4396644;28;655195;-74
2023/04/27 02:53:42;;;;;;;20.20;7.80;;;0.00;99.90;;;;;;4367463;28;655988;-73
2023/04/27 02:56:30;;;;;;;21.90;7.87;;;-0.10;99.90;;;;;;4382962;28;655334;-74
2023/04/27 02:59:17;;;;;;;22.60;7.67;;;-0.10;99.90;;;;;;4366681;28;657484;-74
2023/04/27 03:02:04;;;;;;;17.93;7.77;;;-0.20;99.90;;;;;;4389682;28;656426;-74
2023/04/27 03:04:56;;;;;;;19.23;8.05;;;-0.20;99.90;;;;;;4372428;28;657564;-74
2023/04/27 03:07:43;;;;;;;22.77;8.20;;;-0.20;99.90;;;;;;4367252;28;656363;-74
2023/04/27 03:10:30;;;;;;;19.93;8.27;;;-0.20;99.90;;;;;;4364154;28;657195;-74
2023/04/27 03:13:17;;;;;;;23.80;7.93;;;-0.20;99.90;;;;;;4390118;28;657272;-74
2023/04/27 03:16:06;;;;;;;21.47;8.43;;;-0.20;99.90;;;;;;4373830;28;656609;-73
2023/04/27 03:18:53;;;;;;;23.13;8.57;;;-0.30;99.90;;;;;;4385188;28;657225;-74
2023/04/27 03:21:42;;;;;;;21.10;8.10;;;-0.20;99.90;;;;;;4369065;28;656776;-74
2023/04/27 03:24:29;;;;;;;21.03;9.23;;;-0.20;99.90;;;;;;4388081;28;656396;-74
2023/04/27 03:27:17;;;;;;;26.37;8.70;;;-0.20;99.90;;;;;;4369717;28;656963;-74
2023/04/27 03:30:05;;;;;;;19.17;8.40;;;-0.20;99.90;;;;;;4384578;28;658322;-74
2023/04/27 03:32:52;;;;;;;21.93;8.20;;;-0.10;99.90;;;;;;4365867;28;657294;-74
2023/04/27 03:35:39;;;;;;;22.03;8.97;;;-0.10;99.90;;;;;;4380321;28;656063;-73
2023/04/27 03:38:28;;;;;;;23.13;8.77;;;-0.10;99.90;;;;;;4365607;28;656811;-74
2023/04/27 03:41:15;;;;;;;24.33;8.77;;;-0.10;99.90;;;;;;4379014;28;656555;-74
2023/04/27 03:44:03;;;;;;;23.50;8.73;;;0.00;99.90;;;;;;4393869;28;657398;-74
2023/04/27 03:46:50;;;;;;;24.53;9.10;;;0.00;99.90;;;;;;4388032;28;656028;-74
2023/04/27 03:49:37;;;;;;;19.63;8.63;;;0.10;99.90;;;;;;4394888;28;656856;-74
2023/04/27 03:52:25;;;;;;;24.63;9.63;;;0.20;99.90;;;;;;4381127;28;655504;-74
2023/04/27 03:55:14;;;;;;;23.50;9.97;;;0.20;99.90;;;;;;4397179;28;656345;-74
2023/04/27 03:58:01;;;;;;;28.37;9.13;;;0.30;99.90;;;;;;4374190;28;655892;-73
2023/04/27 04:00:48;;;;;;;24.42;8.88;;;0.40;99.90;;;;;;4396444;28;655420;-74
2023/04/27 04:03:35;;;;;;;28.80;9.23;;;0.40;99.90;;;;;;4373440;28;655305;-74
2023/04/27 04:06:22;;;;;;;23.10;8.80;;;0.50;99.90;;;;;;4395814;28;656195;-74
2023/04/27 04:09:11;;;;;;;22.63;10.30;;;0.60;99.90;;;;;;4378819;28;655489;-74
2023/04/27 04:12:00;;;;;;;27.33;10.17;;;0.70;99.90;;;;;;4391708;28;657161;-74
2023/04/27 04:14:49;;;;;;;20.20;9.90;;;0.70;99.90;;;;;;4372965;28;656959;-74
2023/04/27 04:17:36;;;;;;;30.47;14.17;;;0.80;99.90;;;;;;4375915;28;655662;-74
2023/04/27 04:20:23;;;;;;;32.50;14.87;;;0.90;99.90;;;;;;4395708;28;657023;-75
2023/04/27 04:23:10;;;;;;;39.03;17.83;;;0.90;99.90;;;;;;4370904;28;656584;-74
2023/04/27 04:25:58;;;;;;;40.83;18.07;;;1.00;99.90;;;;;;4385334;28;657889;-74
2023/04/27 04:28:47;;;;;;;37.43;18.10;;;1.10;99.90;;;;;;4379714;28;656973;-73
2023/04/27 04:31:35;;;;;;;45.20;18.97;;;1.20;99.90;;;;;;4392472;28;656594;-74
2023/04/27 04:34:23;;;;;;;42.13;18.33;;;1.30;99.90;;;;;;4392411;28;657686;-74
2023/04/27 04:37:10;;;;;;;35.80;16.77;;;1.40;99.90;;;;;;4372263;28;656576;-74
2023/04/27 04:39:57;;;;;;;42.80;20.40;;;1.50;99.90;;;;;;4398491;28;657167;-74
2023/04/27 04:42:45;;;;;;;42.27;21.23;;;1.60;99.90;;;;;;4391950;28;656077;-74
2023/04/27 04:45:34;;;;;;;53.15;22.98;;;1.70;99.90;;;;;;4361381;28;657417;-74
2023/04/27 04:48:21;;;;;;;44.80;21.50;;;1.90;99.90;;;;;;4368238;28;656890;-74
2023/04/27 04:51:08;;;;;;;47.10;21.30;;;2.00;99.90;;;;;;4392267;28;656398;-74
2023/04/27 04:53:55;;;;;;;51.97;20.95;;;2.10;99.90;;;;;;4371549;28;656456;-74
2023/04/27 04:56:42;;;;;;;47.97;21.87;;;2.30;99.90;;;;;;4386009;28;657270;-74
2023/04/27 04:59:33;;;;;;;44.10;20.53;;;2.40;99.90;;;;;;4385884;28;656572;-75
2023/04/27 05:02:22;;;;;;;42.80;19.20;;;2.60;99.90;;;;;;4374172;28;656682;-74
2023/04/27 05:05:09;;;;;;;47.13;19.87;;;2.80;99.90;;;;;;4392107;28;656294;-74
2023/04/27 05:07:56;;;;;;;49.87;20.70;;;3.00;99.90;;;;;;4375114;28;656778;-74
2023/04/27 05:10:49;;;;;;;50.03;20.10;;;3.00;99.90;;;;;;4393403;28;657164;-74
2023/04/27 05:13:37;;;;;;;45.43;19.77;;;3.30;99.90;;;;;;4364958;28;656199;-74
2023/04/27 05:16:25;;;;;;;43.27;18.20;;;3.50;99.90;;;;;;4383902;28;656514;-72
2023/04/27 05:19:17;;;;;;;42.07;19.13;;;3.60;99.90;;;;;;4365873;28;657378;-72
2023/04/27 05:22:04;;;;;;;42.63;19.20;;;3.70;99.90;;;;;;4369012;28;656132;-74
2023/04/27 05:24:51;;;;;;;39.20;17.80;;;3.90;99.90;;;;;;4373688;28;657120;-73
2023/04/27 05:27:39;;;;;;;47.03;17.77;;;3.90;99.90;;;;;;4392789;28;656786;-73
2023/04/27 05:30:26;;;;;;;40.22;17.77;;;4.10;99.90;;;;;;4374116;28;656410;-72
2023/04/27 05:33:14;;;;;;;48.47;19.33;;;4.30;99.90;;;;;;4382276;28;656937;-73
2023/04/27 05:36:03;;;;;;;48.20;20.87;;;4.40;99.90;;;;;;4371607;28;658043;-73
2023/04/27 05:38:50;;;;;;;45.20;19.50;;;4.50;99.90;;;;;;4379474;28;656812;-73
2023/04/27 05:41:37;;;;;;;52.33;22.27;;;4.40;99.90;;;;;;4393185;28;657059;-73
2023/04/27 05:44:28;;;;;;;50.00;21.90;;;4.50;99.90;;;;;;4384621;28;656979;-73
2023/04/27 05:47:15;;;;;;;46.53;22.07;;;4.60;99.90;;;;;;4378585;28;656376;-73
2023/04/27 05:50:03;;;;;;;52.70;22.20;;;4.70;99.90;;;;;;4390895;28;656182;-72
2023/04/27 05:52:52;;;;;;;43.17;20.05;;;4.80;99.90;;;;;;4364403;28;656793;-73
2023/04/27 05:55:39;;;;;;;45.33;19.20;;;4.90;99.90;;;;;;4393210;28;656191;-73
2023/04/27 05:58:26;;;;;;;39.50;18.57;;;4.90;99.90;;;;;;4376902;28;656529;-74
2023/04/27 06:01:14;;;;;;;46.87;21.13;;;5.10;99.90;;;;;;4393250;28;657445;-72
2023/04/27 06:04:01;;;;;;;56.17;23.47;;;5.20;99.90;;;;;;4364231;28;656859;-72
2023/04/27 06:06:48;;;;;;;55.28;20.38;;;5.20;99.90;;;;;;4380615;28;657405;-73
2023/04/27 06:09:37;;;;;;;48.00;21.53;;;5.10;99.90;;;;;;4373590;28;656567;-73
2023/04/27 06:12:24;;;;;;;53.87;23.53;;;5.00;99.90;;;;;;4370322;28;656517;-73
2023/04/27 06:15:11;;;;;;;56.27;23.83;;;5.10;99.90;;;;;;4346665;28;656572;-72
2023/04/27 06:17:59;;;;;;;49.33;23.80;;;5.30;99.90;;;;;;4373633;28;656843;-73
2023/04/27 06:20:46;;;;;;;49.37;24.20;;;5.30;99.90;;;;;;4356168;28;657033;-73
2023/04/27 06:23:33;;;;;;;46.83;19.30;;;5.30;99.90;;;;;;4370666;28;657109;-72
2023/04/27 06:26:22;;;;;;;40.63;18.43;;;5.50;99.90;;;;;;4345894;28;657863;-73
2023/04/27 06:29:09;;;;;;;40.37;17.93;;;5.60;99.90;;;;;;4371459;28;656587;-73
2023/04/27 06:31:56;;;;;;;44.73;18.67;;;5.50;99.90;;;;;;4353130;28;656456;-72
2023/04/27 06:34:43;;;;;;;42.03;18.10;;;5.80;99.90;;;;;;4370606;28;656876;-72
2023/04/27 06:37:31;;;;;;;38.47;17.30;;;6.10;99.90;;;;;;4349802;28;657034;-73
2023/04/27 06:40:18;;;;;;;32.57;14.33;;;6.10;99.90;;;;;;4364945;28;657487;-72
2023/04/27 06:43:07;;;;;;;36.57;17.33;;;6.20;99.90;;;;;;4344828;28;656676;-74
2023/04/27 06:45:54;;;;;;;38.60;16.80;;;6.20;99.90;;;;;;4366976;28;656290;-73
2023/04/27 06:48:41;;;;;;;37.87;15.27;;;6.40;99.90;;;;;;4348593;28;656922;-74
2023/04/27 06:51:28;;;;;;;32.27;16.03;;;6.60;99.90;;;;;;4371927;28;657402;-73
2023/04/27 06:54:16;;;;;;;31.27;14.27;;;6.70;99.90;;;;;;4345919;28;657936;-73
2023/04/27 06:57:03;;;;;;;31.70;13.37;;;6.80;99.90;;;;;;4372690;28;657604;-75
2023/04/27 06:59:52;;;;;;;31.93;12.97;;;7.10;99.90;;;;;;4349358;28;657345;-74
2023/04/27 07:02:40;;;;;;;31.07;13.07;;;7.00;99.90;;;;;;4361235;28;656708;-73
2023/04/27 07:05:27;;;;;;;27.53;12.53;;;7.20;99.90;;;;;;4364406;28;657793;-73
2023/04/27 07:08:15;;;;;;;29.17;11.40;;;7.20;99.90;;;;;;4366322;28;656595;-73
2023/04/27 07:11:02;;;;;;;31.10;12.20;;;7.40;99.90;;;;;;4381176;28;656598;-73
2023/04/27 07:13:50;;;;;;;23.70;10.37;;;7.30;99.90;;;;;;4388084;28;656945;-74
2023/04/27 07:16:39;;;;;;;28.57;10.40;;;7.10;99.90;;;;;;4388033;28;658011;-75
2023/04/27 07:19:26;;;;;;;29.30;10.30;;;7.10;99.90;;;;;;4365329;28;657053;-76
2023/04/27 07:22:14;;;;;;;28.73;10.53;;;7.30;99.90;;;;;;4382157;28;657713;-75
2023/04/27 07:25:03;;;;;;;22.30;10.00;;;7.50;99.90;;;;;;4368576;28;656415;-74
2023/04/27 07:27:51;;;;;;;27.30;10.07;;;7.50;99.90;;;;;;4374660;28;657095;-74
2023/04/27 07:30:38;;;;;;;27.67;8.53;;;7.40;99.90;;;;;;4388533;28;657540;-75
2023/04/27 07:33:27;;;;;;;16.43;6.63;;;7.80;99.90;;;;;;4368579;28;656087;-74
2023/04/27 07:36:14;;;;;;;19.17;8.90;;;7.60;99.90;;;;;;4386107;28;655239;-71
2023/04/27 07:39:03;;;;;;;22.70;10.07;;;8.00;99.90;;;;;;4360533;28;655212;-75
2023/04/27 07:41:50;;;;;;;23.00;9.20;;;8.20;99.90;;;;;;4379349;28;656797;-74
2023/04/27 07:44:37;;;;;;;25.87;9.97;;;8.50;99.90;;;;;;4391227;28;656412;-73
2023/04/27 07:47:25;;;;;;;12.87;4.97;;;9.00;99.90;;;;;;4381186;28;655359;-73
2023/04/27 07:50:16;;;;;;;19.50;5.30;;;8.90;96.10;;;;;;4384483;28;656112;-73
2023/04/27 07:53:04;;;;;;;8.60;4.47;;;8.80;98.70;;;;;;4369021;28;655877;-71
2023/04/27 07:55:51;;;;;;;14.47;4.93;;;8.20;95.20;;;;;;4362341;28;655379;-73
2023/04/27 07:58:38;;;;;;;13.30;4.70;;;8.10;93.30;;;;;;4388308;28;655744;-72
2023/04/27 08:01:25;;;;;;;11.70;4.40;;;8.50;96.60;;;;;;4368308;28;655700;-73
2023/04/27 08:04:12;;;;;;;16.37;5.30;;;8.80;96.00;;;;;;4386650;28;656449;-73
2023/04/27 08:07:02;;;;;;;12.70;5.10;;;9.40;94.30;;;;;;4388646;28;655565;-73
2023/04/27 08:09:51;;;;;;;14.37;5.33;;;9.50;94.50;;;;;;4383042;28;655869;-73
2023/04/27 08:12:38;;;;;;;11.50;4.17;;;9.60;91.10;;;;;;4362480;28;655648;-73
2023/04/27 08:15:25;;;;;;;12.77;5.17;;;8.80;89.50;;;;;;4361761;28;655358;-73
2023/04/27 08:18:13;;;;;;;8.70;5.23;;;8.50;90.90;;;;;;4378218;28;656667;-73
2023/04/27 08:21:00;;;;;;;20.67;5.80;;;8.00;90.80;;;;;;4376120;28;655010;-72
2023/04/27 08:23:49;;;;;;;11.27;4.80;;;7.60;93.70;;;;;;4387471;28;655717;-73
2023/04/27 08:26:36;;;;;;;17.87;6.13;;;7.60;95.00;;;;;;4363900;28;655965;-72
2023/04/27 08:29:23;;;;;;;12.33;6.90;;;7.40;97.70;;;;;;4248653;28;656261;-74
2023/04/27 08:32:10;;;;;;;20.87;7.20;;;7.30;99.90;;;;;;4214965;28;655708;-74
2023/04/27 08:34:58;;;;;;;18.23;7.20;;;7.30;99.90;;;;;;4340092;28;655913;-72
2023/04/27 08:37:45;;;;;;;19.97;7.80;;;7.40;99.90;;;;;;4375775;28;655335;-74
2023/04/27 08:40:34;;;;;;;14.43;7.27;;;7.90;99.90;;;;;;4388995;28;656035;-73
2023/04/27 08:43:21;;;;;;;22.17;8.10;;;8.00;99.90;;;;;;4366200;28;655987;-73
2023/04/27 08:46:08;;;;;;;19.00;7.70;;;8.30;99.90;;;;;;4387889;28;655781;-73
2023/04/27 08:48:56;;;;;;;21.43;7.83;;;8.60;99.80;;;;;;4363638;28;655671;-74
2023/04/27 08:51:43;;;;;;;17.90;6.83;;;8.70;99.90;;;;;;4383517;28;655844;-73
2023/04/27 08:54:30;;;;;;;17.53;7.53;;;8.70;95.70;;;;;;4370058;28;655807;-73
2023/04/27 08:57:19;;;;;;;15.97;6.47;;;8.60;96.80;;;;;;4384912;28;655867;-73
2023/04/27 09:00:11;;;;;;;20.07;6.40;;;8.60;94.90;;;;;;4364788;28;655781;-73
2023/04/27 09:03:02;;;;;;;15.73;7.13;;;8.70;93.60;;;;;;4362763;28;656356;-73
2023/04/27 09:05:50;;;;;;;20.30;7.00;;;9.10;94.20;;;;;;4358539;28;655735;-72
2023/04/27 09:08:44;;;;;;;18.57;7.37;;;9.80;93.70;;;;;;4367540;28;656830;-73
2023/04/27 09:11:32;;;;;;;18.07;6.37;;;10.60;98.10;;;;;;4369410;28;655399;-73
2023/04/27 09:14:21;;;;;;;20.50;7.35;;;11.00;91.60;;;;;;4392824;28;656541;-73
2023/04/27 09:17:09;;;;;;;21.60;7.80;;;11.10;94.00;;;;;;4361511;28;657008;-73
2023/04/27 09:20:07;;;;;;;12.40;6.27;;;9.50;84.60;;;;;;4367946;28;656676;-75
2023/04/27 09:22:56;;;;;;;12.17;5.90;;;8.90;87.00;;;;;;4368736;28;655952;-73
2023/04/27 09:25:44;;;;;;;12.87;5.90;;;8.10;91.00;;;;;;4372762;28;655660;-73
2023/04/27 09:28:31;;;;;;;10.33;4.63;;;8.10;92.80;;;;;;4370124;28;655889;-73
2023/04/27 09:31:20;;;;;;;11.33;4.20;;;8.00;91.20;;;;;;4388913;28;655897;-74
2023/04/27 09:34:07;;;;;;;9.20;4.17;;;8.10;86.00;;;;;;4366357;28;656041;-72
2023/04/27 09:36:54;;;;;;;13.33;4.60;;;8.10;86.80;;;;;;4394445;28;653782;-74
2023/04/27 09:39:42;;;;;;;12.47;5.03;;;8.60;86.80;;;;;;4368073;28;655900;-73
2023/04/27 09:42:29;;;;;;;17.00;5.03;;;8.90;90.50;;;;;;4394524;28;655292;-74
2023/04/27 09:45:16;;;;;;;10.90;4.70;;;8.90;82.00;;;;;;4370035;28;655618;-74
2023/04/27 09:48:06;;;;;;;13.00;5.17;;;9.10;85.00;;;;;;4387524;28;656014;-73
2023/04/27 09:50:53;;;;;;;12.50;5.40;;;9.20;84.20;;;;;;4362328;28;656400;-73
2023/04/27 09:53:41;;;;;;;11.70;4.77;;;8.90;86.40;;;;;;4366488;28;656393;-73
2023/04/27 09:56:34;;;;;;;11.27;4.37;;;8.30;91.20;;;;;;4386241;28;657696;-72
2023/04/27 09:59:30;;;;;;;16.03;5.03;;;7.70;93.40;;;;;;4364690;28;657329;-73
2023/04/27 10:02:17;;;;;;;10.77;4.60;;;7.70;96.40;;;;;;4345689;28;657569;-72
2023/04/27 10:05:16;;;;;;;12.30;5.13;;;7.70;96.80;;;;;;4390225;28;656000;-74
2023/04/27 10:08:04;;;;;;;12.13;4.07;;;7.40;94.60;;;;;;4368436;28;656764;-72
2023/04/27 10:10:53;;;;;;;7.73;4.37;;;7.80;93.10;;;;;;4369066;28;656771;-73
2023/04/27 10:13:50;;;;;;;11.23;4.50;;;8.00;95.30;;;;;;4367441;28;655285;-73
2023/04/27 10:16:44;;;;;;;11.40;4.97;;;8.20;93.90;;;;;;4345220;28;658373;-73
2023/04/27 10:19:31;;;;;;;12.17;4.87;;;8.40;91.70;;;;;;4368341;28;656887;-73
2023/04/27 10:22:19;;;;;;;13.60;5.17;;;8.70;91.10;;;;;;4381807;28;657167;-73
2023/04/27 10:25:14;;;;;;;10.43;4.50;;;9.20;91.20;;;;;;4369346;28;658059;-73
2023/04/27 10:28:01;;;;;;;10.90;5.00;;;9.60;84.00;;;;;;4348033;28;657636;-74
2023/04/27 10:30:49;;;;;;;12.13;4.50;;;10.10;78.90;;;;;;4390289;28;656769;-73
2023/04/27 10:33:42;;;;;;;9.80;4.30;;;10.60;89.20;;;;;;4365750;28;657739;-74
2023/04/27 10:36:35;;;;;;;9.07;4.50;;;10.90;88.00;;;;;;4361792;28;656245;-74
2023/04/27 10:39:32;;;;;;;11.80;4.40;;;11.60;84.00;;;;;;4335823;28;656902;-74
2023/04/27 10:42:27;;;;;;;7.17;3.50;;;12.50;81.40;;;;;;4360533;28;657336;-75
2023/04/27 10:45:14;;;;;;;8.40;4.30;;;11.70;66.90;;;;;;4369045;28;656540;-73
2023/04/27 10:48:01;;;;;;;12.73;4.27;;;10.30;70.40;;;;;;4370996;28;656656;-75
2023/04/27 10:50:51;;;;;;;8.00;4.43;;;9.40;75.10;;;;;;4387561;28;658578;-73
2023/04/27 10:53:38;;;;;;;9.50;4.63;;;9.00;76.50;;;;;;4369303;28;655916;-73
2023/04/27 10:56:27;;;;;;;9.00;4.40;;;9.00;79.70;;;;;;4365055;28;655751;-73
2023/04/27 10:59:14;;;;;;;9.23;4.37;;;9.30;77.20;;;;;;4393533;28;655368;-73
2023/04/27 11:02:01;;;;;;;10.73;4.90;;;9.70;80.40;;;;;;4369468;28;656065;-73
2023/04/27 11:04:48;;;;;;;13.23;4.63;;;10.30;76.10;;;;;;4388427;28;657021;-73
2023/04/27 11:07:36;;;;;;;7.10;4.00;;;10.60;71.20;;;;;;4359926;28;657641;-74
2023/04/27 11:10:23;;;;;;;11.10;4.37;;;11.00;66.40;;;;;;4377677;28;657202;-73
2023/04/27 11:13:13;;;;;;;12.97;5.20;;;11.40;70.70;;;;;;4371623;28;657704;-73
2023/04/27 11:16:01;;;;;;;10.33;4.17;;;11.90;70.40;;;;;;4366495;28;658022;-73
2023/04/27 11:18:48;;;;;;;11.00;4.10;;;11.60;62.80;;;;;;4385537;28;658602;-75
2023/04/27 11:21:35;;;;;;;10.67;4.60;;;10.80;61.90;;;;;;4368895;28;657523;-73
2023/04/27 11:24:23;;;;;;;10.10;3.87;;;9.90;65.10;;;;;;4385983;28;658519;-72
2023/04/27 11:27:10;;;;;;;7.63;3.60;;;9.50;69.10;;;;;;4371622;28;656654;-72
2023/04/27 11:29:59;;;;;;;12.10;4.20;;;9.30;71.40;;;;;;4389646;28;655836;-73
2023/04/27 11:32:46;;;;;;;9.00;3.80;;;9.20;70.30;;;;;;4363836;28;656954;-73
2023/04/27 11:35:33;;;;;;;16.63;4.23;;;9.40;74.60;;;;;;4388291;28;655850;-73
2023/04/27 11:38:21;;;;;;;8.80;4.23;;;9.60;69.90;;;;;;4366102;28;656811;-72
2023/04/27 11:41:08;;;;;;;13.70;4.60;;;9.50;70.60;;;;;;4387089;28;655093;-73
2023/04/27 11:43:55;;;;;;;15.70;4.77;;;10.00;69.50;;;;;;4373722;28;656274;-73
2023/04/27 11:46:46;;;;;;;10.70;3.97;;;10.70;71.70;;;;;;4377220;28;658950;-72
2023/04/27 11:49:33;;;;;;;12.47;4.30;;;11.20;67.60;;;;;;4363369;28;658067;-73
2023/04/27 11:52:20;;;;;;;11.68;3.72;;;11.30;63.20;;;;;;4367213;28;658032;-74
2023/04/27 11:55:14;;;;;;;8.47;3.83;;;11.40;68.50;;;;;;4385788;28;658150;-74
2023/04/27 11:58:01;;;;;;;7.73;3.83;;;11.40;59.70;;;;;;4337922;28;656944;-73
2023/04/27 12:00:48;;;;;;;9.17;3.43;;;11.00;60.30;;;;;;4387343;28;656948;-74
2023/04/27 12:03:37;;;;;;;12.43;4.23;;;11.00;61.50;;;;;;4357427;28;656232;-74
2023/04/27 12:06:25;;;;;;;9.13;4.43;;;11.30;66.40;;;;;;4388188;28;657445;-74
2023/04/27 12:09:12;;;;;;;12.83;4.40;;;11.80;60.60;;;;;;4364891;28;657474;-74
2023/04/27 12:12:01;;;;;;;9.27;4.07;;;12.10;60.60;;;;;;4378835;28;657704;-74
2023/04/27 12:14:48;;;;;;;9.43;4.30;;;11.60;56.80;;;;;;4390399;28;657322;-74
2023/04/27 12:17:36;;;;;;;8.33;4.00;;;11.20;58.20;;;;;;4368498;28;656718;-74
2023/04/27 12:20:24;;;;;;;13.80;4.60;;;11.70;58.90;;;;;;4386297;28;656790;-74
2023/04/27 12:23:12;;;;;;;15.23;4.50;;;11.50;62.70;;;;;;4364312;28;658333;-73
2023/04/27 12:25:59;;;;;;;8.87;3.90;;;12.00;59.00;;;;;;4383705;28;657448;-74
2023/04/27 12:28:46;;;;;;;13.47;4.53;;;11.90;57.80;;;;;;4367832;28;656967;-73
2023/04/27 12:31:34;;;;;;;8.73;5.03;;;11.90;55.30;;;;;;4390233;28;658491;-74
2023/04/27 12:34:21;;;;;;;8.13;4.20;;;12.30;56.30;;;;;;4381482;28;656721;-73
2023/04/27 12:37:10;;;;;;;8.30;4.80;;;12.10;55.50;;;;;;4381545;28;656518;-73
2023/04/27 12:39:57;;;;;;;10.00;4.30;;;12.20;58.00;;;;;;4370545;28;656694;-73
2023/04/27 12:42:44;;;;;;;9.70;4.40;;;11.50;55.00;;;;;;4387560;28;657210;-73
2023/04/27 12:45:31;;;;;;;10.25;3.97;;;11.30;57.20;;;;;;4365171;28;656906;-73
2023/04/27 12:48:19;;;;;;;6.83;4.27;;;11.80;60.20;;;;;;4386532;28;658515;-73
2023/04/27 12:51:06;;;;;;;6.17;3.53;;;11.80;55.10;;;;;;4369682;28;656641;-74
2023/04/27 12:53:55;;;;;;;9.37;3.90;;;11.40;56.50;;;;;;4384426;28;657156;-72
2023/04/27 12:56:42;;;;;;;11.70;3.93;;;10.90;54.00;;;;;;4370050;28;657198;-74
2023/04/27 12:59:29;;;;;;;10.13;4.43;;;10.80;57.90;;;;;;4386153;28;657616;-73
2023/04/27 13:02:17;;;;;;;10.70;4.03;;;10.60;56.20;;;;;;4371620;28;657579;-72
2023/04/27 13:05:06;;;;;;;11.23;4.60;;;10.60;60.70;;;;;;4388888;28;658078;-72
2023/04/27 13:07:53;;;;;;;11.60;4.70;;;10.80;58.20;;;;;;4370091;28;657805;-73
2023/04/27 13:10:42;;;;;;;13.40;4.57;;;10.60;59.30;;;;;;4358106;28;657602;-73
2023/04/27 13:13:30;;;;;;;9.23;4.40;;;10.10;61.30;;;;;;4393537;28;657601;-72
2023/04/27 13:16:18;;;;;;;14.20;4.10;;;9.90;61.70;;;;;;4366458;28;657377;-72
2023/04/27 13:19:05;;;;;;;16.70;4.97;;;10.20;60.80;;;;;;4381886;28;656772;-72
2023/04/27 13:21:53;;;;;;;10.93;5.03;;;9.90;60.70;;;;;;4392194;28;658478;-72
2023/04/27 13:24:41;;;;;;;12.13;4.88;;;9.50;61.70;;;;;;4371066;28;656599;-73
2023/04/27 13:27:29;;;;;;;10.40;4.73;;;9.40;68.50;;;;;;4393084;28;656369;-73
2023/04/27 13:30:16;;;;;;;12.87;4.77;;;9.50;64.70;;;;;;4362614;28;657432;-72
2023/04/27 13:33:04;;;;;;;8.57;4.30;;;9.60;63.60;;;;;;4387565;28;657022;-73
2023/04/27 13:35:51;;;;;;;13.53;4.83;;;9.80;68.90;;;;;;4364245;28;656775;-73
2023/04/27 13:38:38;;;;;;;9.03;4.37;;;10.00;64.00;;;;;;4387893;28;658662;-73
2023/04/27 13:41:27;;;;;;;12.77;4.97;;;9.80;65.00;;;;;;4364064;28;656726;-72
2023/04/27 13:44:15;;;;;;;11.60;4.77;;;9.50;63.10;;;;;;4385734;28;656776;-72
2023/04/27 13:47:02;;;;;;;10.17;4.83;;;9.80;63.90;;;;;;4352836;28;656922;-72
2023/04/27 13:49:50;;;;;;;9.40;4.00;;;9.50;62.90;;;;;;4381151;28;657584;-72
2023/04/27 13:52:38;;;;;;;11.50;4.87;;;9.40;61.60;;;;;;4394112;28;655445;-72
2023/04/27 13:55:25;;;;;;;11.97;4.97;;;9.30;62.80;;;;;;4369413;28;657041;-72
2023/04/27 13:58:13;;;;;;;15.27;5.20;;;9.50;64.50;;;;;;4391977;28;657199;-72
2023/04/27 14:01:02;;;;;;;9.93;5.17;;;9.50;69.40;;;;;;4379540;28;656329;-73
2023/04/27 14:03:49;;;;;;;18.40;5.30;;;9.60;66.30;;;;;;4386494;28;655002;-72
2023/04/27 14:06:36;;;;;;;10.03;5.33;;;9.80;65.60;;;;;;4373112;28;656148;-73
2023/04/27 14:09:25;;;;;;;15.43;5.43;;;9.80;63.30;;;;;;4395228;28;656912;-73
2023/04/27 14:12:13;;;;;;;12.00;5.60;;;9.60;64.50;;;;;;4363183;28;657400;-72
2023/04/27 14:15:00;;;;;;;20.10;5.90;;;9.60;64.20;;;;;;4374083;28;657063;-72
2023/04/27 14:17:49;;;;;;;11.17;5.40;;;9.30;64.50;;;;;;4389082;28;657449;-72